createdAt,value
2019-05-22T04:47:58.473Z,12.38
2019-05-22T04:50:25.929Z,12.45
2019-05-22T04:52:52.710Z,12.57
2019-05-22T04:55:20.294Z,12.66
2019-05-22T04:57:47.660Z,12.73
2019-05-22T05:00:16.053Z,12.86
2019-05-22T05:02:43.030Z,12.76
2019-05-22T05:05:11.107Z,12.76
2019-05-22T05:07:59.918Z,12.70
2019-05-22T05:10:26.907Z,12.61
2019-05-22T05:12:57.244Z,12.45
2019-05-22T05:15:23.937Z,12.51
2019-05-22T05:17:51.215Z,12.56
2019-05-22T05:20:22.555Z,12.67
2019-05-22T05:22:47.974Z,12.61
2019-05-22T05:25:16.398Z,12.65
2019-05-22T05:27:43.994Z,12.61
2019-05-22T05:30:13.081Z,12.47
2019-05-22T05:32:40.375Z,12.47
2019-05-22T05:35:08.468Z,12.41
2019-05-22T05:37:35.927Z,12.56
2019-05-22T05:40:35.504Z,12.56
2019-05-22T05:43:03.316Z,12.47
2019-05-22T05:45:32.011Z,12.39
2019-05-22T05:47:59.583Z,12.49
2019-05-22T05:50:38.812Z,12.59
2019-05-22T05:52:57.714Z,12.84
2019-05-22T05:55:28.022Z,12.84
2019-05-22T05:58:25.831Z,12.97
2019-05-22T06:00:55.805Z,12.94
2019-05-22T06:03:37.984Z,13.08
2019-05-22T06:07:00.082Z,13.01
2019-05-22T06:09:26.705Z,13.03
2019-05-22T06:11:56.271Z,12.76
2019-05-22T06:14:26.659Z,12.79
2019-05-22T06:17:51.088Z,12.62
2019-05-22T06:20:18.563Z,12.54
2019-05-22T06:23:25.717Z,12.52
2019-05-22T06:25:52.839Z,12.63
2019-05-22T06:28:19.602Z,12.74
2019-05-22T06:30:46.592Z,12.70
2019-05-22T06:33:44.366Z,12.91
2019-05-22T06:36:17.793Z,12.79
2019-05-22T06:38:51.695Z,12.72
2019-05-22T06:41:19.515Z,12.78
2019-05-22T06:44:36.635Z,12.94
2019-05-22T06:47:06.245Z,12.88
2019-05-22T06:49:38.687Z,12.47
2019-05-22T06:52:27.243Z,12.64
2019-05-22T06:54:55.146Z,12.60
2019-05-22T06:57:26.498Z,12.53
2019-05-22T07:00:12.467Z,12.37
2019-05-22T07:02:27.310Z,12.43
2019-05-22T07:05:15.509Z,12.32
2019-05-22T07:07:42.491Z,12.43
2019-05-22T07:10:11.925Z,12.48
2019-05-22T07:15:49.626Z,12.77
2019-05-22T07:18:23.497Z,12.85
2019-05-22T07:20:51.681Z,12.97
2019-05-22T07:23:27.871Z,12.61
2019-05-22T07:25:56.884Z,12.49
2019-05-22T07:28:24.785Z,12.65
2019-05-22T07:30:51.947Z,12.60
2019-05-22T07:33:18.753Z,12.64
2019-05-22T07:36:05.516Z,12.64
2019-05-22T07:38:16.388Z,12.20
2019-05-22T07:40:43.674Z,11.07
2019-05-22T07:43:10.595Z,12.24
2019-05-22T07:45:37.891Z,12.26
2019-05-22T07:48:07.304Z,12.37
2019-05-22T07:50:37.777Z,12.30
2019-05-22T07:53:05.762Z,12.18
2019-05-22T07:55:33.355Z,12.39
2019-05-22T07:58:04.902Z,12.53
2019-05-22T08:00:32.088Z,12.43
2019-05-22T08:02:59.236Z,12.36
2019-05-22T08:05:27.922Z,12.39
2019-05-22T08:07:57.804Z,12.47
2019-05-22T08:10:25.020Z,12.49
2019-05-22T08:12:52.368Z,12.59
2019-05-22T08:15:20.672Z,12.51
2019-05-22T08:17:47.527Z,12.69
2019-05-22T08:20:14.821Z,12.89
2019-05-22T08:22:42.700Z,12.76
2019-05-22T08:25:09.788Z,12.86
2019-05-22T08:27:36.666Z,12.95
2019-05-22T08:30:04.300Z,12.55
2019-05-22T08:32:31.764Z,12.68
2019-05-22T08:34:59.157Z,12.86
2019-05-22T08:37:30.417Z,12.79
2019-05-22T08:39:57.918Z,12.98
2019-05-22T08:42:25.411Z,12.81
2019-05-22T08:44:52.144Z,12.96
2019-05-22T08:47:19.951Z,13.07
2019-05-22T08:49:46.747Z,13.09
2019-05-22T08:52:23.105Z,13.26
2019-05-22T08:54:46.133Z,13.06
2019-05-22T08:57:13.158Z,13.13
2019-05-22T08:59:41.819Z,13.09
2019-05-22T09:02:08.604Z,13.20
2019-05-22T09:04:35.653Z,13.26
2019-05-22T09:07:02.328Z,13.45
2019-05-22T09:09:29.760Z,13.88
2019-05-22T09:11:56.620Z,13.83
2019-05-22T09:14:23.525Z,14.16
2019-05-22T09:16:51.285Z,14.17
2019-05-22T09:19:19.262Z,13.30
2019-05-22T09:21:46.445Z,12.83
2019-05-22T09:24:16.459Z,12.90
2019-05-22T09:26:44.138Z,12.89
2019-05-22T09:29:10.945Z,13.01
2019-05-22T09:31:38.031Z,13.20
2019-05-22T09:34:04.831Z,13.20
2019-05-22T09:36:32.286Z,13.22
2019-05-22T09:38:59.073Z,13.37
2019-05-22T09:41:26.623Z,13.09
2019-05-22T09:43:53.441Z,13.63
2019-05-22T09:46:20.462Z,14.25
2019-05-22T09:48:48.049Z,14.56
2019-05-22T09:51:14.937Z,15.24
2019-05-22T09:53:42.704Z,15.79
2019-05-22T09:56:09.995Z,16.40
2019-05-22T09:58:38.180Z,16.14
2019-05-22T10:01:06.302Z,16.22
2019-05-22T10:03:33.484Z,15.94
2019-05-22T10:06:02.717Z,15.49
2019-05-22T10:08:29.863Z,14.62
2019-05-22T10:10:56.949Z,14.75
2019-05-22T10:13:23.685Z,14.05
2019-05-22T10:15:51.135Z,14.32
2019-05-22T10:18:18.255Z,14.08
2019-05-22T10:20:45.421Z,13.96
2019-05-22T10:23:15.974Z,14.15
2019-05-22T10:25:41.207Z,14.58
2019-05-22T10:28:08.276Z,14.68
2019-05-22T10:30:36.334Z,15.05
2019-05-22T10:33:03.405Z,15.68
2019-05-22T10:35:33.126Z,16.93
2019-05-22T10:37:59.998Z,16.83
2019-05-22T10:40:27.481Z,16.71
2019-05-22T10:42:55.730Z,16.56
2019-05-22T10:45:22.535Z,16.82
2019-05-22T10:47:49.486Z,17.49
2019-05-22T10:50:16.505Z,17.44
2019-05-22T10:52:53.687Z,17.32
2019-05-22T10:55:18.317Z,17.13
2019-05-22T10:57:45.032Z,17.18
2019-05-22T11:00:14.462Z,16.65
2019-05-22T11:02:42.909Z,16.46
2019-05-22T11:05:10.400Z,16.48
2019-05-22T11:07:37.223Z,16.34
2019-05-22T11:10:05.240Z,16.73
2019-05-22T11:12:31.922Z,16.44
2019-05-22T11:17:47.037Z,16.09
2019-05-22T11:20:16.295Z,15.93
2019-05-22T11:22:43.470Z,15.07
2019-05-22T11:25:13.141Z,15.26
2019-05-22T11:28:01.611Z,15.10
2019-05-22T11:30:28.672Z,14.33
2019-05-22T11:32:56.168Z,14.31
2019-05-22T11:35:23.955Z,14.76
2019-05-22T11:37:50.911Z,14.35
2019-05-22T11:40:19.803Z,14.73
2019-05-22T11:42:47.495Z,15.90
2019-05-22T11:45:15.281Z,17.63
2019-05-22T11:47:42.329Z,19.12
2019-05-22T11:50:10.405Z,19.69
2019-05-22T11:52:37.523Z,18.87
2019-05-22T11:55:05.203Z,17.64
2019-05-22T11:57:33.319Z,17.71
2019-05-22T12:00:00.109Z,17.55
2019-05-22T12:02:27.198Z,17.78
2019-05-22T12:04:53.954Z,17.96
2019-05-22T12:07:21.083Z,18.38
2019-05-22T12:09:48.301Z,18.99
2019-05-22T12:12:15.711Z,16.90
2019-05-22T12:14:42.873Z,16.85
2019-05-22T12:17:10.994Z,17.02
2019-05-22T12:19:38.770Z,17.40
2019-05-22T12:22:07.162Z,16.87
2019-05-22T12:24:37.202Z,16.33
2019-05-22T12:27:04.167Z,16.38
2019-05-22T12:29:31.239Z,15.94
2019-05-22T12:31:58.023Z,15.97
2019-05-22T12:34:25.060Z,16.31
2019-05-22T12:36:51.955Z,17.17
2019-05-22T12:39:20.502Z,17.87
2019-05-22T12:41:47.999Z,17.05
2019-05-22T12:44:17.588Z,17.21
2019-05-22T12:46:44.407Z,16.57
2019-05-22T12:49:12.994Z,16.74
2019-05-22T12:51:40.185Z,16.21
2019-05-22T12:54:07.839Z,15.56
2019-05-22T12:56:34.630Z,15.41
2019-05-22T12:59:02.304Z,16.35
2019-05-22T13:01:30.717Z,18.84
2019-05-22T13:03:58.555Z,20.59
2019-05-22T13:06:25.747Z,19.54
2019-05-22T13:08:54.563Z,18.62
2019-05-22T13:11:26.073Z,18.62
2019-05-22T13:13:53.008Z,17.94
2019-05-22T13:16:19.991Z,18.52
2019-05-22T13:18:46.799Z,19.12
2019-05-22T13:21:17.990Z,20.18
2019-05-22T13:23:46.371Z,19.06
2019-05-22T13:26:14.843Z,19.13
2019-05-22T13:28:44.085Z,20.13
2019-05-22T13:31:11.036Z,21.01
2019-05-22T13:33:39.427Z,21.83
2019-05-22T13:36:06.223Z,22.04
2019-05-22T13:38:33.503Z,22.90
2019-05-22T13:41:00.976Z,25.67
2019-05-22T13:43:28.051Z,27.62
2019-05-22T13:45:55.217Z,27.44
2019-05-22T13:48:21.981Z,26.07
2019-05-22T13:50:49.414Z,23.05
2019-05-22T13:53:17.310Z,22.94
2019-05-22T13:55:44.808Z,26.49
2019-05-22T13:58:12.008Z,27.16
2019-05-22T14:00:39.391Z,24.17
2019-05-22T14:03:07.117Z,23.18
2019-05-22T14:05:34.752Z,23.16
2019-05-22T14:08:02.144Z,22.07
2019-05-22T14:10:30.720Z,22.70
2019-05-22T14:12:57.814Z,21.79
2019-05-22T14:15:24.978Z,22.18
2019-05-22T14:17:51.868Z,22.27
2019-05-22T14:23:13.808Z,23.07
2019-05-22T14:25:40.859Z,22.95
2019-05-22T14:28:08.151Z,24.50
2019-05-22T14:30:35.005Z,24.77
2019-05-22T14:33:04.875Z,24.56
2019-05-22T14:35:47.480Z,25.55
2019-05-22T14:38:04.351Z,27.80
2019-05-22T14:40:31.308Z,29.92
2019-05-22T14:42:58.095Z,28.17
2019-05-22T14:45:24.961Z,30.66
2019-05-22T14:47:51.796Z,30.35
2019-05-22T14:50:20.105Z,32.56
2019-05-22T14:52:47.275Z,29.94
2019-05-22T14:55:15.367Z,31.69
2019-05-22T14:57:42.134Z,30.23
2019-05-22T15:00:11.904Z,30.03
2019-05-22T15:02:38.674Z,29.53
2019-05-22T15:05:06.146Z,30.91
2019-05-22T15:07:32.960Z,31.90
2019-05-22T15:09:59.759Z,30.31
2019-05-22T15:12:27.131Z,28.31
2019-05-22T15:14:53.932Z,27.10
2019-05-22T15:17:31.602Z,28.10
2019-05-22T15:19:49.410Z,30.20
2019-05-22T15:22:16.474Z,30.32
2019-05-22T15:24:43.633Z,29.69
2019-05-22T15:27:11.822Z,27.19
2019-05-22T15:29:38.592Z,25.59
2019-05-22T15:32:05.576Z,24.73
2019-05-22T15:34:33.324Z,26.00
2019-05-22T15:37:00.771Z,27.36
2019-05-22T15:39:30.058Z,27.99
2019-05-22T15:41:58.594Z,29.92
2019-05-22T15:44:26.282Z,29.99
2019-05-22T15:46:53.055Z,29.03
2019-05-22T15:49:20.445Z,30.41
2019-05-22T15:51:48.014Z,28.93
2019-05-22T15:54:17.113Z,29.39
2019-05-22T15:56:46.060Z,29.82
2019-05-22T15:59:16.111Z,30.58
2019-05-22T16:01:44.844Z,30.15
2019-05-22T16:04:15.055Z,30.51
2019-05-22T16:06:42.310Z,30.50
2019-05-22T16:09:12.620Z,29.73
2019-05-22T16:11:39.922Z,29.68
2019-05-22T16:14:06.835Z,28.50
2019-05-22T16:16:35.390Z,28.61
2019-05-22T16:19:04.667Z,27.68
2019-05-22T16:21:32.854Z,26.33
2019-05-22T16:24:00.559Z,25.67
2019-05-22T16:26:29.272Z,24.81
2019-05-22T16:28:57.155Z,23.71
2019-05-22T16:31:25.619Z,23.03
2019-05-22T16:33:53.592Z,22.77
2019-05-22T16:36:22.305Z,22.66
2019-05-22T16:38:51.182Z,22.76
2019-05-22T16:41:19.094Z,22.77
2019-05-22T16:43:50.171Z,22.77
2019-05-22T16:46:19.903Z,22.39
2019-05-22T16:48:48.065Z,22.05
2019-05-22T16:51:16.961Z,22.09
2019-05-22T16:53:49.938Z,22.11
2019-05-22T16:56:17.798Z,21.81
2019-05-22T16:58:44.550Z,21.54
2019-05-22T17:01:11.334Z,21.28
2019-05-22T17:03:38.306Z,21.22
2019-05-22T17:06:06.142Z,21.21
2019-05-22T17:08:33.019Z,21.06
2019-05-22T17:11:00.973Z,20.94
2019-05-22T17:13:28.693Z,20.81
2019-05-22T17:15:56.410Z,20.50
2019-05-22T17:18:23.814Z,20.46
2019-05-22T17:20:51.133Z,20.45
2019-05-22T17:23:17.910Z,20.15
2019-05-22T17:25:44.805Z,20.07
2019-05-22T17:28:11.849Z,19.68
2019-05-22T17:30:39.454Z,19.52
2019-05-22T17:33:06.970Z,19.52
2019-05-22T17:35:34.426Z,19.56
2019-05-22T17:38:03.120Z,19.52
2019-05-22T17:40:31.321Z,19.50
2019-05-22T17:42:58.602Z,19.39
2019-05-22T17:45:27.554Z,19.29
2019-05-22T17:47:55.396Z,19.19
2019-05-22T17:50:27.127Z,19.16
2019-05-22T17:52:53.024Z,19.12
2019-05-22T17:55:20.134Z,19.12
2019-05-22T17:57:47.082Z,19.09
2019-05-22T18:00:24.643Z,18.93
2019-05-22T18:02:51.413Z,18.83
2019-05-22T18:05:18.895Z,18.58
2019-05-22T18:07:46.259Z,18.37
2019-05-22T18:10:13.847Z,18.17
2019-05-22T18:12:41.213Z,17.77
2019-05-22T18:15:10.354Z,17.23
2019-05-22T18:17:37.903Z,16.91
2019-05-22T18:20:05.141Z,16.65
2019-05-22T18:22:32.395Z,16.59
2019-05-22T18:24:59.879Z,16.54
2019-05-22T18:27:26.975Z,16.78
2019-05-22T18:29:53.854Z,16.95
2019-05-22T18:32:20.644Z,16.95
2019-05-22T18:34:47.331Z,16.83
2019-05-22T18:37:14.088Z,16.64
2019-05-22T18:39:40.781Z,16.21
2019-05-22T18:42:07.760Z,16.14
2019-05-22T18:44:34.420Z,15.80
2019-05-22T18:47:01.338Z,15.61
2019-05-22T18:49:28.025Z,15.32
2019-05-22T18:51:54.827Z,15.07
2019-05-22T18:54:21.584Z,14.91
2019-05-22T18:56:48.262Z,14.66
2019-05-22T18:59:15.124Z,14.46
2019-05-22T19:01:41.905Z,14.24
2019-05-22T19:04:08.692Z,14.12
2019-05-22T19:06:35.522Z,14.16
2019-05-22T19:09:03.938Z,14.16
2019-05-22T19:11:31.019Z,14.20
2019-05-22T19:13:57.822Z,14.20
2019-05-22T19:16:24.578Z,14.23
2019-05-22T19:18:51.431Z,14.17
2019-05-22T19:21:18.256Z,14.16
2019-05-22T19:23:45.091Z,14.08
2019-05-22T19:26:11.887Z,14.03
2019-05-22T19:28:43.989Z,13.92
2019-05-22T19:31:08.370Z,13.90
2019-05-22T19:33:35.349Z,13.87
2019-05-22T19:36:03.037Z,13.92
2019-05-22T19:38:29.900Z,13.88
2019-05-22T19:40:57.308Z,13.84
2019-05-22T19:43:24.391Z,13.80
2019-05-22T19:45:51.229Z,13.66
2019-05-22T19:48:18.082Z,13.48
2019-05-22T19:50:45.275Z,13.54
2019-05-22T19:53:18.948Z,13.56
2019-05-22T19:55:41.278Z,13.47
2019-05-22T19:58:08.578Z,13.30
2019-05-22T20:00:38.717Z,13.21
2019-05-22T20:03:05.743Z,12.97
2019-05-22T20:05:34.612Z,12.79
2019-05-22T20:08:01.587Z,12.70
2019-05-22T20:10:28.303Z,12.54
2019-05-22T20:12:55.442Z,12.36
2019-05-22T20:15:22.209Z,12.28
2019-05-22T20:20:30.342Z,12.02
2019-05-22T20:22:58.793Z,11.92
2019-05-22T20:25:26.168Z,11.74
2019-05-22T20:27:53.716Z,11.67
2019-05-22T20:30:22.108Z,11.58
2019-05-22T20:32:49.391Z,11.53
2019-05-22T20:35:16.991Z,11.46
2019-05-22T20:37:45.777Z,11.45
2019-05-22T20:40:15.058Z,11.38
2019-05-22T20:42:43.584Z,11.34
2019-05-22T20:45:12.512Z,11.37
2019-05-22T20:47:41.286Z,11.46
2019-05-22T20:50:09.541Z,11.41
2019-05-22T20:52:37.718Z,11.32
2019-05-22T20:55:06.368Z,11.27
2019-05-22T20:57:33.073Z,11.37
2019-05-22T21:02:50.123Z,11.11
2019-05-22T21:05:19.814Z,11.01
2019-05-22T21:07:49.194Z,10.88
2019-05-22T21:10:16.872Z,10.78
2019-05-22T21:12:45.838Z,10.73
2019-05-22T21:15:13.424Z,10.74
2019-05-22T21:17:40.533Z,10.80
2019-05-22T21:20:10.084Z,10.66
2019-05-22T21:22:37.923Z,10.72
2019-05-22T21:25:06.012Z,10.67
2019-05-22T21:27:33.350Z,10.58
2019-05-22T21:30:00.042Z,10.57
2019-05-22T21:32:26.633Z,10.48
2019-05-22T21:34:54.520Z,10.37
2019-05-22T21:37:21.986Z,10.35
2019-05-22T21:39:50.001Z,10.33
2019-05-22T21:42:17.384Z,10.24
2019-05-22T21:44:44.110Z,10.18
2019-05-22T21:47:12.996Z,10.16
2019-05-22T21:49:40.278Z,10.09
2019-05-22T21:52:07.741Z,10.04
2019-05-22T21:54:35.629Z,9.95
2019-05-22T21:57:04.314Z,9.88
2019-05-22T21:59:31.012Z,9.83
2019-05-22T22:02:12.609Z,9.78
2019-05-22T22:04:40.623Z,9.79
2019-05-22T22:07:08.790Z,9.85
2019-05-22T22:09:35.824Z,9.86
2019-05-22T22:12:03.508Z,9.86
2019-05-22T22:14:30.803Z,9.79
2019-05-22T22:16:59.348Z,9.75
2019-05-22T22:19:28.327Z,9.78
2019-05-22T22:21:55.440Z,9.69
2019-05-22T22:24:22.672Z,9.80
2019-05-22T22:26:49.798Z,9.74
2019-05-22T22:29:16.814Z,9.61
2019-05-22T22:31:45.287Z,9.50
2019-05-22T22:34:18.440Z,9.45
2019-05-22T22:36:46.689Z,9.37
2019-05-22T22:39:14.669Z,9.33
2019-05-22T22:41:42.215Z,9.35
2019-05-22T22:44:09.598Z,9.37
2019-05-22T22:46:42.602Z,9.37
2019-05-22T22:49:14.052Z,9.34
2019-05-22T22:51:40.800Z,9.33
2019-05-22T22:54:07.491Z,9.34
2019-05-22T22:56:34.823Z,9.27
2019-05-22T22:59:03.604Z,9.23
2019-05-22T23:01:52.865Z,9.22
2019-05-22T23:04:23.806Z,9.19
2019-05-22T23:07:12.637Z,9.16
2019-05-22T23:09:41.966Z,9.13
2019-05-22T23:12:09.229Z,9.17
2019-05-22T23:14:39.881Z,9.17
2019-05-22T23:17:06.260Z,9.10
2019-05-22T23:19:38.155Z,9.22
2019-05-22T23:22:05.244Z,9.18
2019-05-22T23:24:36.824Z,9.12
2019-05-22T23:27:06.080Z,9.07
2019-05-22T23:29:34.165Z,9.11
2019-05-22T23:32:01.738Z,9.04
2019-05-22T23:34:28.655Z,9.02
2019-05-22T23:36:57.427Z,8.93
2019-05-22T23:39:25.903Z,8.85
2019-05-22T23:41:56.503Z,8.79
2019-05-22T23:47:04.871Z,8.78
2019-05-22T23:49:31.904Z,8.76
2019-05-22T23:51:58.566Z,8.72
2019-05-22T23:54:26.670Z,8.69
2019-05-22T23:56:53.527Z,8.64
2019-05-22T23:59:20.611Z,8.66
